Time;durP1;ratioP1;P1;durP2;ratioP2;P2;SDS_P1;SDS_P2;PMS_P1;PMS_P2;Temp;Humidity;BMP_temperature;BMP_pressure;BME280_temperature;BME280_humidity;BME280_pressure;Samples;Min_cycle;Max_cycle;Signal;HPM_P1;HPM_P2
2022/03/30 00:01:01;;;;;;;16.98;11.45;;;19.20;63.20;;;;;;4992223;28;20040;-73
2022/03/30 00:03:27;;;;;;;15.85;11.10;;;19.20;63.30;;;;;;4974810;28;20038;-73
2022/03/30 00:05:53;;;;;;;14.18;10.85;;;19.20;63.20;;;;;;4993141;28;20045;-73
2022/03/30 00:08:19;;;;;;;17.67;11.05;;;19.20;63.30;;;;;;4992027;28;20030;-74
2022/03/30 00:10:44;;;;;;;13.85;10.35;;;19.20;63.20;;;;;;4993406;28;20023;-73
2022/03/30 00:13:10;;;;;;;15.70;11.13;;;19.10;63.70;;;;;;4992777;28;20478;-73
2022/03/30 00:15:36;;;;;;;14.32;10.88;;;19.10;63.00;;;;;;4992340;28;20398;-73
2022/03/30 00:18:01;;;;;;;14.63;10.27;;;19.10;62.80;;;;;;4974981;28;20031;-73
2022/03/30 00:20:27;;;;;;;13.30;10.23;;;19.10;62.70;;;;;;4992250;28;20026;-73
2022/03/30 00:22:53;;;;;;;12.68;9.82;;;19.10;62.50;;;;;;4992306;28;20038;-73
2022/03/30 00:25:20;;;;;;;14.35;10.40;;;19.10;62.40;;;;;;4992477;28;20498;-73
2022/03/30 00:27:46;;;;;;;14.55;10.40;;;19.00;62.40;;;;;;4992418;28;20023;-73
2022/03/30 00:30:14;;;;;;;13.25;9.73;;;19.10;62.70;;;;;;4991039;28;20385;-73
2022/03/30 00:32:41;;;;;;;14.35;10.13;;;19.00;62.40;;;;;;4992098;28;20054;-73
2022/03/30 00:35:08;;;;;;;13.13;9.75;;;19.00;62.30;;;;;;4992355;28;20037;-73
2022/03/30 00:37:34;;;;;;;17.02;11.07;;;19.00;62.20;;;;;;4991780;28;20426;-73
2022/03/30 00:40:00;;;;;;;14.80;9.90;;;19.00;62.20;;;;;;4992170;28;20085;-73
2022/03/30 00:42:26;;;;;;;12.35;9.77;;;19.00;62.00;;;;;;4991365;28;20038;-73
2022/03/30 00:44:53;;;;;;;12.25;9.27;;;19.00;61.90;;;;;;4990966;28;20102;-73
2022/03/30 00:47:25;;;;;;;12.25;9.93;;;18.90;62.00;;;;;;4991625;28;20037;-73
2022/03/30 00:49:51;;;;;;;12.63;10.13;;;18.90;61.90;;;;;;4974293;28;20018;-73
2022/03/30 00:52:18;;;;;;;14.73;10.10;;;18.90;61.80;;;;;;4991478;28;20486;-73
2022/03/30 00:54:46;;;;;;;12.82;9.55;;;18.90;61.70;;;;;;4992423;28;20487;-73
2022/03/30 00:57:14;;;;;;;13.32;9.90;;;18.90;61.60;;;;;;4991457;28;20488;-73
2022/03/30 00:59:41;;;;;;;16.92;10.77;;;18.90;61.50;;;;;;4991088;28;20517;-73
2022/03/30 01:02:07;;;;;;;13.20;9.95;;;18.90;61.50;;;;;;4990752;28;20230;-73
2022/03/30 01:04:33;;;;;;;14.90;10.20;;;18.90;61.40;;;;;;4991475;28;20050;-73
2022/03/30 01:06:59;;;;;;;16.15;10.50;;;18.90;61.40;;;;;;4991601;28;20077;-73
2022/03/30 01:09:26;;;;;;;14.18;10.57;;;18.80;61.20;;;;;;4991407;28;20030;-73
2022/03/30 01:11:56;;;;;;;13.40;10.18;;;18.90;61.30;;;;;;4991988;28;20481;-73
2022/03/30 01:14:23;;;;;;;12.88;9.38;;;18.90;61.30;;;;;;4973774;28;20029;-73
2022/03/30 01:16:49;;;;;;;13.25;9.68;;;18.80;61.10;;;;;;4974090;28;20133;-73
2022/03/30 01:19:15;;;;;;;12.77;9.02;;;18.80;61.10;;;;;;4991119;28;20386;-73
2022/03/30 01:21:42;;;;;;;13.13;9.52;;;18.80;61.10;;;;;;4991558;28;20038;-73
2022/03/30 01:24:10;;;;;;;12.30;9.45;;;18.80;61.00;;;;;;4991174;28;20069;-73
2022/03/30 01:26:37;;;;;;;14.05;9.68;;;18.80;61.00;;;;;;4973608;28;20038;-73
2022/03/30 01:34:34;;;;;;;14.52;9.02;;;18.70;60.70;;;;;;4977828;28;20049;-73
2022/03/30 01:37:01;;;;;;;13.43;9.18;;;18.70;60.60;;;;;;4991441;28;20022;-73
2022/03/30 01:39:26;;;;;;;12.52;9.52;;;18.70;60.60;;;;;;4991246;28;20023;-73
2022/03/30 01:41:52;;;;;;;11.95;8.40;;;18.70;60.60;;;;;;4991631;28;20497;-73
2022/03/30 01:44:18;;;;;;;12.13;8.88;;;18.70;60.50;;;;;;4990562;28;20089;-74
2022/03/30 01:46:43;;;;;;;11.05;9.02;;;18.70;60.50;;;;;;4990814;28;20438;-73
2022/03/30 01:49:09;;;;;;;13.75;9.73;;;18.70;60.50;;;;;;4991234;28;20027;-73
2022/03/30 01:51:35;;;;;;;11.55;8.00;;;18.70;60.40;;;;;;4973470;28;20031;-73
2022/03/30 01:54:01;;;;;;;13.20;9.25;;;18.60;60.40;;;;;;4990962;28;20027;-73
2022/03/30 01:56:26;;;;;;;12.27;9.20;;;18.60;60.30;;;;;;4990993;28;20470;-73
2022/03/30 01:58:52;;;;;;;12.48;9.38;;;18.60;60.30;;;;;;4995076;28;20033;-73
2022/03/30 02:01:18;;;;;;;14.75;9.05;;;18.60;60.20;;;;;;4994515;28;20033;-73
2022/03/30 02:03:43;;;;;;;14.38;9.25;;;18.60;60.20;;;;;;4995478;28;20383;-73
2022/03/30 02:06:12;;;;;;;13.90;10.27;;;18.60;60.10;;;;;;4977829;28;20067;-73
2022/03/30 02:08:38;;;;;;;12.02;8.95;;;18.60;60.10;;;;;;4994519;28;20062;-73
2022/03/30 02:11:04;;;;;;;12.35;9.15;;;18.60;60.10;;;;;;4995277;28;20098;-73
2022/03/30 02:13:30;;;;;;;12.98;9.45;;;18.60;60.10;;;;;;4994634;28;20483;-73
2022/03/30 02:15:55;;;;;;;12.77;10.10;;;18.60;60.10;;;;;;4994820;28;20027;-73
2022/03/30 02:18:21;;;;;;;12.18;9.02;;;18.60;60.10;;;;;;4994362;28;20041;-73
2022/03/30 02:20:47;;;;;;;12.20;9.35;;;18.50;60.00;;;;;;4994786;28;20474;-73
2022/03/30 02:23:12;;;;;;;11.73;8.65;;;18.50;60.00;;;;;;4994313;28;20041;-73
2022/03/30 02:25:38;;;;;;;10.88;8.50;;;18.50;60.00;;;;;;4994779;28;20018;-73
2022/03/30 02:28:04;;;;;;;10.38;8.23;;;18.50;60.00;;;;;;4994515;28;20038;-73
2022/03/30 02:30:30;;;;;;;11.82;8.77;;;18.40;59.90;;;;;;4994320;28;20041;-73
2022/03/30 02:32:57;;;;;;;11.40;8.77;;;18.40;59.90;;;;;;4994266;28;20426;-73
2022/03/30 02:35:24;;;;;;;12.55;9.27;;;18.40;59.90;;;;;;4994578;28;20054;-73
2022/03/30 02:37:54;;;;;;;11.20;8.93;;;18.40;59.90;;;;;;4993966;28;20383;-73
2022/03/30 02:40:20;;;;;;;12.20;9.07;;;18.40;59.90;;;;;;4976446;28;20494;-73
2022/03/30 02:42:46;;;;;;;13.00;9.75;;;18.40;59.90;;;;;;4994268;28;20033;-73
2022/03/30 02:45:12;;;;;;;12.13;9.15;;;18.40;59.90;;;;;;4994806;28;20022;-72
2022/03/30 02:50:22;;;;;;;11.05;8.63;;;18.40;59.80;;;;;;4994044;28;20057;-72
2022/03/30 02:52:48;;;;;;;12.63;8.35;;;18.40;59.80;;;;;;4993907;28;20086;-73
2022/03/30 02:55:14;;;;;;;11.30;8.68;;;18.40;59.70;;;;;;4994453;28;20117;-73
2022/03/30 02:57:40;;;;;;;12.95;9.52;;;18.30;59.70;;;;;;4993693;28;20030;-73
2022/03/30 03:00:07;;;;;;;11.40;8.60;;;18.40;59.70;;;;;;4994129;28;20061;-73
2022/03/30 03:02:34;;;;;;;12.48;8.40;;;18.30;59.70;;;;;;4975443;28;20100;-73
2022/03/30 03:05:01;;;;;;;11.90;9.02;;;18.30;59.70;;;;;;4993705;28;20026;-73
2022/03/30 03:07:27;;;;;;;11.48;8.80;;;18.30;59.60;;;;;;4976078;28;20061;-73
2022/03/30 03:09:53;;;;;;;11.32;9.05;;;18.30;59.70;;;;;;4993239;28;20109;-73
2022/03/30 03:12:19;;;;;;;12.43;9.20;;;18.30;59.60;;;;;;4993677;28;20129;-73
2022/03/30 03:14:45;;;;;;;11.73;8.75;;;18.30;59.60;;;;;;4993766;28;20461;-72
2022/03/30 03:17:11;;;;;;;12.25;9.07;;;18.30;59.60;;;;;;4976568;28;20062;-74
2022/03/30 03:19:37;;;;;;;10.98;8.70;;;18.20;59.60;;;;;;4993141;28;20493;-72
2022/03/30 03:22:04;;;;;;;12.68;9.00;;;18.20;59.50;;;;;;4993530;28;20129;-75
2022/03/30 03:24:29;;;;;;;11.65;9.00;;;18.20;59.40;;;;;;4975574;28;20026;-75
2022/03/30 03:26:55;;;;;;;13.85;9.65;;;18.20;59.50;;;;;;4993342;28;20076;-75
2022/03/30 03:29:21;;;;;;;10.90;8.52;;;18.20;59.50;;;;;;4975859;28;20505;-75
2022/03/30 03:31:46;;;;;;;11.52;9.32;;;18.20;59.50;;;;;;4993895;28;20065;-75
2022/03/30 03:34:12;;;;;;;12.77;9.32;;;18.20;59.50;;;;;;4993679;28;20112;-75
2022/03/30 03:36:38;;;;;;;11.00;7.95;;;18.20;59.50;;;;;;4975416;28;20522;-72
2022/03/30 03:39:03;;;;;;;11.48;8.82;;;18.20;59.50;;;;;;4976010;28;20030;-74
2022/03/30 03:41:29;;;;;;;10.25;8.27;;;18.20;59.50;;;;;;4993122;28;20474;-74
2022/03/30 03:43:55;;;;;;;12.95;9.15;;;18.20;59.40;;;;;;4975568;28;20116;-75
2022/03/30 03:46:20;;;;;;;12.02;8.50;;;18.20;59.50;;;;;;4993009;28;20085;-74
2022/03/30 03:48:46;;;;;;;11.00;8.68;;;18.20;59.40;;;;;;4993527;28;20034;-74
2022/03/30 03:51:12;;;;;;;12.63;8.77;;;18.20;59.40;;;;;;4975640;28;20439;-75
2022/03/30 03:53:37;;;;;;;15.02;9.27;;;18.20;59.40;;;;;;4992695;28;20066;-75
2022/03/30 03:56:03;;;;;;;11.23;8.70;;;18.10;59.30;;;;;;4992907;28;20029;-74
2022/03/30 03:58:29;;;;;;;10.25;7.65;;;18.10;59.30;;;;;;4975221;28;20053;-74
2022/03/30 04:00:55;;;;;;;10.88;8.55;;;18.10;59.30;;;;;;4992990;28;20530;-74
2022/03/30 04:03:21;;;;;;;10.57;8.65;;;18.10;59.30;;;;;;4991886;28;20093;-74
2022/03/30 04:05:47;;;;;;;11.05;8.05;;;18.10;59.30;;;;;;4975426;28;20387;-74
2022/03/30 04:08:12;;;;;;;12.85;8.95;;;18.00;59.20;;;;;;4975292;28;20110;-74
2022/03/30 04:10:39;;;;;;;11.13;8.63;;;18.10;59.20;;;;;;4975239;28;20397;-75
2022/03/30 04:13:06;;;;;;;14.65;9.77;;;18.00;59.20;;;;;;4974921;28;20026;-74
2022/03/30 04:15:33;;;;;;;10.57;9.20;;;18.10;59.20;;;;;;4992477;28;20038;-74
2022/03/30 04:17:58;;;;;;;13.00;8.45;;;18.10;59.20;;;;;;4992802;28;20502;-74
2022/03/30 04:20:24;;;;;;;10.52;7.97;;;18.00;59.10;;;;;;4990866;28;20053;-75
2022/03/30 04:22:49;;;;;;;12.02;8.90;;;18.00;59.10;;;;;;4992562;28;20050;-74
2022/03/30 04:25:15;;;;;;;12.48;8.80;;;18.00;59.10;;;;;;4992527;28;20145;-75
2022/03/30 04:27:46;;;;;;;12.32;9.50;;;18.00;59.10;;;;;;4992214;28;20034;-75
2022/03/30 04:30:12;;;;;;;13.30;9.02;;;18.00;59.10;;;;;;4992164;28;20046;-75
2022/03/30 04:32:38;;;;;;;11.80;8.40;;;18.00;59.10;;;;;;4992481;28;20112;-75
2022/03/30 04:35:04;;;;;;;10.40;8.45;;;18.00;59.00;;;;;;4992415;28;20019;-75
2022/03/30 04:37:29;;;;;;;11.85;8.57;;;18.00;59.10;;;;;;4992381;28;20030;-75
2022/03/30 04:39:55;;;;;;;11.45;8.15;;;18.00;59.00;;;;;;4992109;28;20030;-74
2022/03/30 04:42:20;;;;;;;11.57;8.30;;;18.00;59.00;;;;;;4974392;28;20057;-75
2022/03/30 04:44:47;;;;;;;9.95;8.05;;;18.00;58.90;;;;;;4992160;28;20548;-75
2022/03/30 04:47:13;;;;;;;13.40;9.38;;;18.00;58.90;;;;;;4992389;28;20069;-74
2022/03/30 04:49:38;;;;;;;9.75;8.18;;;17.90;58.80;;;;;;4991163;28;20127;-75
2022/03/30 04:52:05;;;;;;;11.45;8.13;;;17.90;58.80;;;;;;4992162;28;20042;-74
2022/03/30 04:54:30;;;;;;;11.50;8.57;;;17.90;58.80;;;;;;4991636;28;20025;-75
2022/03/30 04:56:56;;;;;;;11.73;8.60;;;17.90;58.90;;;;;;4991974;28;20038;-74
2022/03/30 04:59:21;;;;;;;11.38;9.13;;;17.90;58.90;;;;;;4991532;28;20402;-75
2022/03/30 05:01:47;;;;;;;13.23;9.55;;;17.90;58.80;;;;;;4984762;28;20041;-75
2022/03/30 05:04:13;;;;;;;11.70;8.50;;;17.90;58.80;;;;;;4989088;28;20085;-74
2022/03/30 05:06:38;;;;;;;11.00;9.10;;;17.90;58.80;;;;;;4974105;28;20125;-74
2022/03/30 05:09:04;;;;;;;11.18;9.00;;;17.90;58.80;;;;;;4991742;28;20109;-74
2022/03/30 05:11:31;;;;;;;11.05;8.63;;;17.90;58.80;;;;;;4980043;28;20046;-74
2022/03/30 05:13:57;;;;;;;13.13;9.73;;;17.90;58.80;;;;;;4990473;28;20489;-74
2022/03/30 05:16:23;;;;;;;10.60;8.52;;;17.90;58.80;;;;;;4990930;28;20038;-74
2022/03/30 05:18:48;;;;;;;12.30;9.15;;;17.90;58.70;;;;;;5001027;28;20022;-74
2022/03/30 05:21:14;;;;;;;12.88;8.95;;;17.90;58.80;;;;;;4991468;28;20492;-74
2022/03/30 05:23:40;;;;;;;11.90;8.75;;;17.90;58.70;;;;;;4973828;28;20038;-74
2022/03/30 05:26:06;;;;;;;10.77;8.75;;;17.90;58.70;;;;;;4991945;28;20037;-73
2022/03/30 05:28:31;;;;;;;12.57;8.45;;;17.90;58.70;;;;;;4991324;28;20050;-74
2022/03/30 05:30:57;;;;;;;13.48;8.88;;;17.80;58.60;;;;;;4991827;28;20385;-74
2022/03/30 05:33:23;;;;;;;10.68;8.73;;;17.90;58.70;;;;;;4989908;28;20027;-74
2022/03/30 05:35:50;;;;;;;11.40;8.88;;;17.90;58.60;;;;;;4991071;28;20031;-74
2022/03/30 05:38:16;;;;;;;11.98;8.35;;;17.90;58.60;;;;;;4974219;28;20157;-74
2022/03/30 05:40:42;;;;;;;11.15;8.52;;;17.80;58.50;;;;;;4992017;28;20033;-74
2022/03/30 05:43:08;;;;;;;11.23;8.07;;;17.90;58.60;;;;;;4991579;28;20034;-74
2022/03/30 05:45:34;;;;;;;11.15;8.27;;;17.90;58.50;;;;;;4973270;28;20077;-75
2022/03/30 05:48:00;;;;;;;12.27;9.13;;;17.80;58.50;;;;;;4973958;28;20030;-74
2022/03/30 05:50:26;;;;;;;14.25;9.00;;;17.80;58.50;;;;;;4991102;28;20110;-74
2022/03/30 05:52:52;;;;;;;13.05;8.93;;;17.80;58.50;;;;;;4991405;28;20482;-76
2022/03/30 05:55:17;;;;;;;11.30;8.60;;;17.80;58.50;;;;;;4991363;28;20475;-76
2022/03/30 05:57:43;;;;;;;11.07;8.18;;;17.80;58.50;;;;;;4991706;28;20030;-76
2022/03/30 06:00:10;;;;;;;14.23;8.98;;;17.80;58.50;;;;;;4990758;28;20034;-76
2022/03/30 06:02:37;;;;;;;10.20;8.15;;;17.80;58.50;;;;;;4990741;28;20438;-77
2022/03/30 06:05:04;;;;;;;13.05;9.15;;;17.80;58.50;;;;;;4991529;28;20026;-76
2022/03/30 06:07:30;;;;;;;13.00;9.18;;;17.80;58.50;;;;;;4989745;28;20402;-77
2022/03/30 06:09:56;;;;;;;13.18;9.48;;;17.80;58.60;;;;;;4973605;28;20030;-77
2022/03/30 06:12:24;;;;;;;14.45;8.88;;;17.80;58.70;;;;;;4973135;28;20022;-78
2022/03/30 06:14:51;;;;;;;13.02;8.70;;;17.80;59.00;;;;;;4991366;28;20023;-78
2022/03/30 06:17:18;;;;;;;13.23;8.93;;;17.80;58.90;;;;;;4990488;28;20545;-76
2022/03/30 06:19:47;;;;;;;12.68;10.25;;;17.80;59.30;;;;;;4990971;28;20062;-77
2022/03/30 06:22:13;;;;;;;11.80;8.82;;;17.80;59.50;;;;;;4974101;28;20491;-75
2022/03/30 06:24:40;;;;;;;17.83;10.95;;;17.90;59.40;;;;;;4990545;28;20018;-77
2022/03/30 06:27:07;;;;;;;16.63;10.85;;;17.90;59.60;;;;;;4992684;28;20030;-76
2022/03/30 06:29:34;;;;;;;16.67;10.57;;;17.90;59.90;;;;;;4973531;28;20022;-76
2022/03/30 06:32:00;;;;;;;12.88;10.07;;;17.90;60.00;;;;;;4973291;28;20030;-77
2022/03/30 06:34:26;;;;;;;15.52;10.07;;;17.90;60.10;;;;;;4998973;28;20022;-77
2022/03/30 06:36:53;;;;;;;13.45;9.90;;;17.90;60.00;;;;;;5010742;28;20030;-77
2022/03/30 06:39:22;;;;;;;19.30;11.23;;;17.90;60.10;;;;;;5002635;28;20054;-80
2022/03/30 06:41:48;;;;;;;14.45;10.02;;;17.90;60.10;;;;;;4996479;28;20038;-76
2022/03/30 06:44:14;;;;;;;16.98;10.38;;;17.90;60.10;;;;;;4975861;28;20065;-78
2022/03/30 06:46:40;;;;;;;14.73;9.75;;;17.90;59.90;;;;;;4976934;28;20022;-78
2022/03/30 06:49:07;;;;;;;12.70;9.70;;;17.90;59.70;;;;;;4988540;28;20081;-75
2022/03/30 06:51:33;;;;;;;16.80;10.07;;;17.90;59.80;;;;;;4988924;28;20026;-76
2022/03/30 06:54:00;;;;;;;20.40;10.93;;;17.90;59.70;;;;;;4993763;28;20026;-78
2022/03/30 06:56:26;;;;;;;17.48;10.40;;;17.90;59.60;;;;;;4992716;28;20429;-75
2022/03/30 06:58:52;;;;;;;13.98;9.40;;;17.90;59.70;;;;;;4993411;28;20026;-74
2022/03/30 07:01:18;;;;;;;15.27;9.52;;;17.90;59.70;;;;;;4993909;28;20114;-77
2022/03/30 07:03:43;;;;;;;19.50;10.57;;;17.90;59.60;;;;;;4994557;28;20042;-77
2022/03/30 07:06:10;;;;;;;18.27;11.35;;;17.80;59.40;;;;;;4994309;28;20056;-74
2022/03/30 07:11:20;;;;;;;17.63;10.57;;;17.80;59.30;;;;;;4993756;28;20033;-75
2022/03/30 07:13:45;;;;;;;14.95;10.00;;;17.80;59.30;;;;;;4994418;28;20026;-76
2022/03/30 07:16:11;;;;;;;12.73;8.88;;;17.80;59.30;;;;;;4994091;28;20394;-75
2022/03/30 07:18:36;;;;;;;16.38;10.32;;;17.80;59.80;;;;;;4993816;28;20030;-75
2022/03/30 07:21:02;;;;;;;18.85;10.63;;;17.80;59.30;;;;;;4993957;28;20077;-74
2022/03/30 07:23:28;;;;;;;16.42;11.35;;;17.80;59.30;;;;;;4993732;28;20034;-75
2022/03/30 07:25:54;;;;;;;15.13;9.27;;;17.80;59.20;;;;;;4993960;28;20478;-76
2022/03/30 07:28:20;;;;;;;12.30;9.07;;;17.80;59.20;;;;;;4993759;28;20065;-75
2022/03/30 07:30:48;;;;;;;14.90;9.55;;;17.80;59.20;;;;;;4994207;28;20110;-75
2022/03/30 07:33:15;;;;;;;14.93;9.88;;;17.70;59.10;;;;;;4994228;28;20042;-75
2022/03/30 07:35:48;;;;;;;12.30;8.75;;;17.80;59.10;;;;;;4993521;28;20093;-75
2022/03/30 07:38:16;;;;;;;15.68;8.85;;;17.80;59.10;;;;;;4994201;28;20496;-75
2022/03/30 07:40:43;;;;;;;15.85;9.77;;;17.80;59.10;;;;;;4994019;28;20022;-73
2022/03/30 07:43:09;;;;;;;11.60;8.35;;;17.70;59.00;;;;;;4993632;28;20045;-74
2022/03/30 07:45:35;;;;;;;12.40;8.50;;;17.70;59.00;;;;;;4993431;28;20088;-74
2022/03/30 07:48:01;;;;;;;12.93;8.18;;;17.70;59.50;;;;;;4993648;28;20113;-74
2022/03/30 07:50:26;;;;;;;14.85;8.50;;;17.70;59.00;;;;;;4993184;28;20105;-74
2022/03/30 07:52:52;;;;;;;15.40;8.60;;;17.70;58.90;;;;;;4993198;28;20031;-74
2022/03/30 07:55:18;;;;;;;15.63;8.57;;;17.70;58.90;;;;;;4975554;28;20054;-75
2022/03/30 07:57:44;;;;;;;12.75;8.45;;;17.70;58.90;;;;;;4993781;28;20027;-74
2022/03/30 08:00:16;;;;;;;11.05;7.15;;;17.70;58.90;;;;;;4993405;28;20027;-75
2022/03/30 08:02:42;;;;;;;12.18;8.55;;;17.70;58.90;;;;;;4993101;28;20032;-75
2022/03/30 08:05:13;;;;;;;14.43;8.57;;;17.70;58.80;;;;;;4993218;28;20034;-74
2022/03/30 08:07:39;;;;;;;12.30;7.72;;;17.70;58.80;;;;;;4993110;28;20118;-75
2022/03/30 08:10:08;;;;;;;11.40;7.60;;;17.70;58.80;;;;;;4993196;28;20018;-75
2022/03/30 08:12:34;;;;;;;10.05;7.38;;;17.60;58.70;;;;;;4992828;28;20026;-75
2022/03/30 08:15:00;;;;;;;10.75;7.20;;;17.70;58.70;;;;;;4975632;28;20072;-75
2022/03/30 08:17:26;;;;;;;11.32;7.47;;;17.70;58.70;;;;;;4992743;28;20106;-75
2022/03/30 08:19:54;;;;;;;14.05;8.35;;;17.70;58.60;;;;;;4993006;28;20469;-75
2022/03/30 08:22:25;;;;;;;11.90;8.20;;;17.60;58.60;;;;;;4975161;28;20074;-74
2022/03/30 08:24:53;;;;;;;12.25;7.25;;;17.70;58.60;;;;;;4992785;28;20034;-75
2022/03/30 08:27:21;;;;;;;16.38;8.52;;;17.60;58.60;;;;;;4992519;28;20030;-74
2022/03/30 08:29:48;;;;;;;11.13;6.63;;;17.60;58.60;;;;;;4992722;28;20022;-76
2022/03/30 08:32:15;;;;;;;12.98;8.00;;;17.70;58.60;;;;;;4993050;28;20440;-75
2022/03/30 08:34:41;;;;;;;9.93;6.68;;;17.70;58.50;;;;;;4992424;28;20489;-76
2022/03/30 08:37:07;;;;;;;13.27;7.15;;;17.70;58.50;;;;;;4992700;28;20022;-75
2022/03/30 08:39:34;;;;;;;12.52;7.60;;;17.70;58.50;;;;;;4992435;28;20034;-74
2022/03/30 08:42:01;;;;;;;10.50;6.50;;;17.60;58.40;;;;;;4992534;28;20084;-77
2022/03/30 08:44:27;;;;;;;10.75;6.53;;;17.70;58.40;;;;;;4992175;28;20578;-74
2022/03/30 08:46:53;;;;;;;12.20;7.10;;;17.70;58.40;;;;;;4992555;28;20097;-74
2022/03/30 08:49:19;;;;;;;12.10;7.20;;;17.70;58.30;;;;;;4992174;28;20113;-76
2022/03/30 08:51:47;;;;;;;11.48;7.28;;;17.70;58.40;;;;;;4992588;28;20029;-75
2022/03/30 08:54:15;;;;;;;10.80;7.05;;;17.60;58.30;;;;;;4992697;28;20027;-75
2022/03/30 08:56:41;;;;;;;10.48;6.82;;;17.70;58.30;;;;;;4992274;28;20394;-75
2022/03/30 08:59:09;;;;;;;11.20;6.63;;;17.70;58.20;;;;;;4992212;28;20526;-75
2022/03/30 09:01:39;;;;;;;11.00;6.60;;;17.70;58.20;;;;;;4991931;28;20509;-75
2022/03/30 09:04:12;;;;;;;10.25;7.03;;;17.70;58.80;;;;;;4974757;28;20030;-75
2022/03/30 09:06:46;;;;;;;9.55;6.80;;;17.70;58.20;;;;;;4991366;28;20030;-75
2022/03/30 09:09:14;;;;;;;10.77;6.60;;;17.70;58.20;;;;;;4992486;28;20409;-75
2022/03/30 09:11:55;;;;;;;11.38;7.70;;;17.70;58.10;;;;;;4991905;28;20064;-75
2022/03/30 09:14:23;;;;;;;10.98;7.28;;;17.70;58.10;;;;;;4991949;28;20030;-76
2022/03/30 09:16:55;;;;;;;10.60;7.13;;;17.70;58.10;;;;;;4992017;28;20031;-74
2022/03/30 09:19:21;;;;;;;10.23;6.80;;;17.70;58.00;;;;;;4991720;28;20500;-74
2022/03/30 09:21:57;;;;;;;10.07;6.70;;;17.70;58.00;;;;;;4992019;28;20019;-74
2022/03/30 09:24:29;;;;;;;11.18;6.72;;;17.70;58.00;;;;;;4991646;28;20031;-74
2022/03/30 09:26:56;;;;;;;8.70;6.32;;;17.70;57.90;;;;;;4992025;28;20034;-75
2022/03/30 09:29:24;;;;;;;13.30;7.18;;;17.70;57.90;;;;;;4974143;28;20545;-76
2022/03/30 09:31:51;;;;;;;10.15;7.25;;;17.70;58.40;;;;;;4991720;28;20054;-75
2022/03/30 09:34:18;;;;;;;9.32;6.53;;;17.70;57.80;;;;;;4991578;28;20022;-75
2022/03/30 09:36:44;;;;;;;10.18;5.78;;;17.70;57.80;;;;;;4992050;28;20022;-75
2022/03/30 09:39:34;;;;;;;10.43;7.15;;;17.70;57.80;;;;;;4991750;28;20030;-75
2022/03/30 09:42:03;;;;;;;11.20;6.88;;;17.70;57.70;;;;;;4991745;28;20038;-75
2022/03/30 09:44:30;;;;;;;10.23;6.45;;;17.70;57.70;;;;;;4991458;28;20018;-75
2022/03/30 09:47:05;;;;;;;12.43;6.07;;;17.70;57.70;;;;;;4991683;28;20042;-76
2022/03/30 09:49:45;;;;;;;9.60;6.13;;;17.80;57.70;;;;;;4991481;28;20050;-75
2022/03/30 09:52:16;;;;;;;9.93;6.43;;;17.80;57.70;;;;;;4991538;28;20038;-75
2022/03/30 09:54:47;;;;;;;11.10;6.35;;;17.80;57.60;;;;;;4991957;28;20475;-75
2022/03/30 09:57:40;;;;;;;8.23;6.00;;;17.80;57.50;;;;;;4991890;28;20065;-74
2022/03/30 10:00:14;;;;;;;9.23;5.90;;;17.90;57.50;;;;;;4991654;28;20030;-74
2022/03/30 10:02:41;;;;;;;9.55;6.35;;;17.80;57.40;;;;;;4973957;28;20035;-75
2022/03/30 10:05:13;;;;;;;9.38;5.90;;;17.90;57.40;;;;;;4991647;28;20053;-75
2022/03/30 10:07:40;;;;;;;11.32;5.68;;;17.90;57.40;;;;;;4991168;28;20026;-76
2022/03/30 10:10:11;;;;;;;11.05;5.68;;;17.90;57.30;;;;;;4991485;28;20057;-75
2022/03/30 10:12:37;;;;;;;8.50;5.50;;;17.90;57.30;;;;;;4991326;28;20415;-74
2022/03/30 10:15:04;;;;;;;7.68;5.55;;;17.90;57.20;;;;;;4991540;28;20113;-75
2022/03/30 10:17:29;;;;;;;11.00;5.60;;;17.90;57.20;;;;;;4991691;28;20022;-75
2022/03/30 10:19:58;;;;;;;8.95;5.72;;;17.90;57.10;;;;;;4995264;28;20019;-75
2022/03/30 10:22:45;;;;;;;8.88;5.45;;;17.90;57.10;;;;;;4977368;28;20371;-74
2022/03/30 10:25:27;;;;;;;8.45;4.90;;;17.90;57.10;;;;;;4995218;28;20494;-75
2022/03/30 10:27:56;;;;;;;7.88;5.13;;;18.00;57.10;;;;;;4977662;28;20095;-75
2022/03/30 10:30:30;;;;;;;8.65;4.93;;;18.00;57.10;;;;;;4977540;28;20019;-74
2022/03/30 10:33:02;;;;;;;9.90;5.60;;;18.00;57.00;;;;;;4995035;28;20026;-75
2022/03/30 10:35:48;;;;;;;9.75;5.63;;;18.00;57.00;;;;;;4994982;28;20022;-75
2022/03/30 10:38:16;;;;;;;8.25;5.60;;;18.00;56.90;;;;;;4995331;28;20031;-76
2022/03/30 10:40:43;;;;;;;9.63;6.00;;;18.00;56.80;;;;;;4994974;28;20022;-75
2022/03/30 10:43:10;;;;;;;7.63;5.15;;;18.00;56.80;;;;;;4995041;28;20129;-74
2022/03/30 10:45:40;;;;;;;6.75;5.03;;;18.10;56.80;;;;;;4994688;28;20118;-75
2022/03/30 10:48:22;;;;;;;10.45;5.53;;;18.00;56.70;;;;;;4994962;28;20037;-74
2022/03/30 10:51:06;;;;;;;8.48;5.10;;;18.00;56.70;;;;;;4994603;28;20027;-75
2022/03/30 10:53:35;;;;;;;9.05;5.18;;;18.10;56.70;;;;;;4994324;28;20022;-75
2022/03/30 10:56:15;;;;;;;7.03;4.90;;;18.00;56.60;;;;;;4994681;28;20105;-75
2022/03/30 10:58:53;;;;;;;7.35;5.07;;;18.00;56.60;;;;;;4976687;28;20098;-76
2022/03/30 11:01:25;;;;;;;8.60;5.05;;;18.10;56.60;;;;;;4976794;28;20031;-75
2022/03/30 11:04:10;;;;;;;9.35;5.07;;;18.10;56.50;;;;;;4994585;28;20038;-75
2022/03/30 11:06:39;;;;;;;7.20;4.43;;;18.10;56.50;;;;;;4976592;28;20022;-76
2022/03/30 11:09:07;;;;;;;7.75;4.68;;;18.10;56.50;;;;;;4976870;28;20093;-75
2022/03/30 11:11:43;;;;;;;8.93;4.80;;;18.10;56.50;;;;;;4994127;28;20026;-76
2022/03/30 11:14:34;;;;;;;9.07;5.18;;;18.10;56.20;;;;;;4976814;28;20030;-75
2022/03/30 11:17:05;;;;;;;7.97;4.85;;;18.10;56.40;;;;;;4976670;28;20022;-76
2022/03/30 11:19:55;;;;;;;6.40;4.97;;;18.10;56.40;;;;;;4993912;28;20073;-75
2022/03/30 11:22:28;;;;;;;10.18;5.15;;;18.10;56.40;;;;;;4979832;28;20030;-74
2022/03/30 11:25:19;;;;;;;7.93;4.10;;;18.10;56.40;;;;;;4994073;28;20046;-75
2022/03/30 11:27:57;;;;;;;7.93;4.72;;;18.10;56.40;;;;;;4994457;28;20027;-74
2022/03/30 11:30:25;;;;;;;8.15;5.15;;;18.10;56.30;;;;;;4993243;28;20029;-75
2022/03/30 11:32:50;;;;;;;8.40;5.00;;;18.10;56.30;;;;;;4993859;28;20030;-75
2022/03/30 11:35:18;;;;;;;9.23;5.30;;;18.10;56.30;;;;;;4994087;28;20037;-75
2022/03/30 11:37:49;;;;;;;9.48;4.60;;;18.10;56.30;;;;;;4994152;28;20027;-75
2022/03/30 11:40:17;;;;;;;9.07;5.13;;;18.20;56.30;;;;;;4994235;28;20041;-77
2022/03/30 11:42:55;;;;;;;8.45;4.55;;;18.10;56.20;;;;;;4994228;28;20037;-75
2022/03/30 11:45:24;;;;;;;6.88;5.03;;;18.10;56.20;;;;;;4993957;28;20027;-74
2022/03/30 11:47:52;;;;;;;7.63;4.97;;;18.10;56.70;;;;;;4993870;28;20386;-74
2022/03/30 11:50:26;;;;;;;7.10;4.70;;;18.10;56.10;;;;;;4976259;28;20022;-75
2022/03/30 11:53:04;;;;;;;7.20;4.07;;;18.10;56.20;;;;;;4993634;28;20479;-74
2022/03/30 11:55:33;;;;;;;9.70;4.95;;;18.20;56.10;;;;;;4993472;28;20049;-74
2022/03/30 11:58:01;;;;;;;7.60;4.63;;;18.20;56.00;;;;;;4993450;28;20133;-76
2022/03/30 12:00:27;;;;;;;5.72;3.97;;;18.10;56.10;;;;;;4993059;28;20037;-75
2022/03/30 12:02:59;;;;;;;8.32;5.00;;;18.20;56.00;;;;;;4993282;28;20034;-76
2022/03/30 12:05:25;;;;;;;5.88;4.13;;;18.20;56.00;;;;;;4993172;28;20024;-74
2022/03/30 12:07:55;;;;;;;6.78;4.32;;;18.20;55.90;;;;;;4993265;28;20118;-75
2022/03/30 12:10:29;;;;;;;7.65;4.63;;;18.20;55.90;;;;;;4975644;28;20022;-75
2022/03/30 12:12:55;;;;;;;7.90;4.68;;;18.20;55.90;;;;;;4993254;28;20080;-75
2022/03/30 12:15:21;;;;;;;5.88;4.18;;;18.20;55.90;;;;;;4992879;28;20022;-74
2022/03/30 12:17:58;;;;;;;6.68;4.07;;;18.20;55.80;;;;;;4993314;28;20026;-76
2022/03/30 12:20:36;;;;;;;8.40;4.13;;;18.20;55.80;;;;;;4975323;28;20034;-75
2022/03/30 12:23:04;;;;;;;5.63;4.15;;;18.20;55.80;;;;;;4975426;28;20042;-75
2022/03/30 12:25:36;;;;;;;5.47;4.18;;;18.20;55.70;;;;;;4992654;28;20057;-74
2022/03/30 12:28:03;;;;;;;9.35;4.57;;;18.20;55.70;;;;;;4993039;28;20030;-74
2022/03/30 12:30:34;;;;;;;7.22;4.82;;;18.20;55.70;;;;;;4992748;28;20371;-74
2022/03/30 12:33:00;;;;;;;5.57;3.85;;;18.20;55.70;;;;;;4993578;28;20022;-75
2022/03/30 12:35:31;;;;;;;7.28;4.93;;;18.20;55.70;;;;;;4993586;28;20372;-75
2022/03/30 12:38:11;;;;;;;6.30;4.63;;;18.20;55.70;;;;;;4992735;28;20026;-75
2022/03/30 12:40:42;;;;;;;6.45;3.95;;;18.20;55.60;;;;;;4992216;28;20050;-76
2022/03/30 12:43:08;;;;;;;6.93;4.85;;;18.20;55.60;;;;;;4992085;28;20038;-74
2022/03/30 12:45:54;;;;;;;6.25;4.45;;;18.20;55.60;;;;;;4974831;28;20433;-76
2022/03/30 12:48:32;;;;;;;7.93;4.55;;;18.20;55.60;;;;;;4994158;28;20034;-74
2022/03/30 12:51:00;;;;;;;9.40;4.75;;;18.20;55.50;;;;;;4992262;28;20032;-74
2022/03/30 12:53:31;;;;;;;6.28;4.18;;;18.20;55.50;;;;;;4974591;28;20104;-75